sensor_id;sensor_type;location;lat;lon;timestamp;pressure;altitude;pressure_sealevel;temperature;humidity
69751;BME280;57335;52.288;6.056;2023-04-29T00:00:02;101380.59;;;9.50;100.00
69751;BME280;57335;52.288;6.056;2023-04-29T00:02:29;101379.34;;;9.46;100.00
69751;BME280;57335;52.288;6.056;2023-04-29T00:04:57;101391.22;;;9.49;100.00
69751;BME280;57335;52.288;6.056;2023-04-29T00:07:24;101388.00;;;9.47;100.00
69751;BME280;57335;52.288;6.056;2023-04-29T00:09:50;101376.63;;;9.39;100.00
69751;BME280;57335;52.288;6.056;2023-04-29T00:12:17;101389.19;;;9.44;100.00
69751;BME280;57335;52.288;6.056;2023-04-29T00:14:44;101393.22;;;9.47;100.00
69751;BME280;57335;52.288;6.056;2023-04-29T00:17:10;101393.84;;;9.49;100.00
69751;BME280;57335;52.288;6.056;2023-04-29T00:19:36;101391.97;;;9.43;100.00
69751;BME280;57335;52.288;6.056;2023-04-29T00:22:03;101400.44;;;9.45;100.00
69751;BME280;57335;52.288;6.056;2023-04-29T00:24:29;101394.03;;;9.47;100.00
69751;BME280;57335;52.288;6.056;2023-04-29T00:26:55;101396.47;;;9.49;100.00
69751;BME280;57335;52.288;6.056;2023-04-29T00:29:22;101387.28;;;9.38;100.00
69751;BME280;57335;52.288;6.056;2023-04-29T00:31:48;101414.22;;;9.53;100.00
69751;BME280;57335;52.288;6.056;2023-04-29T00:34:15;101414.50;;;9.44;100.00
69751;BME280;57335;52.288;6.056;2023-04-29T00:36:41;101421.38;;;9.45;100.00
69751;BME280;57335;52.288;6.056;2023-04-29T00:39:07;101420.56;;;9.44;100.00
69751;BME280;57335;52.288;6.056;2023-04-29T00:41:34;101427.97;;;9.41;100.00
69751;BME280;57335;52.288;6.056;2023-04-29T00:44:00;101424.91;;;9.37;100.00
69751;BME280;57335;52.288;6.056;2023-04-29T00:46:26;101423.72;;;9.39;100.00
69751;BME280;57335;52.288;6.056;2023-04-29T00:48:53;101431.84;;;9.45;100.00
69751;BME280;57335;52.288;6.056;2023-04-29T00:51:19;101420.22;;;9.32;100.00
69751;BME280;57335;52.288;6.056;2023-04-29T00:53:46;101433.31;;;9.32;100.00
69751;BME280;57335;52.288;6.056;2023-04-29T00:56:15;101429.63;;;9.27;100.00
69751;BME280;57335;52.288;6.056;2023-04-29T00:58:42;101445.75;;;9.30;100.00
69751;BME280;57335;52.288;6.056;2023-04-29T01:01:09;101446.09;;;9.27;100.00
69751;BME280;57335;52.288;6.056;2023-04-29T01:03:35;101450.59;;;9.33;100.00
69751;BME280;57335;52.288;6.056;2023-04-29T01:11:29;101455.22;;;9.31;100.00
69751;BME280;57335;52.288;6.056;2023-04-29T01:14:01;101461.28;;;9.17;100.00
69751;BME280;57335;52.288;6.056;2023-04-29T01:16:50;101469.81;;;9.26;100.00
69751;BME280;57335;52.288;6.056;2023-04-29T01:21:47;101468.38;;;9.23;100.00
69751;BME280;57335;52.288;6.056;2023-04-29T01:24:14;101470.09;;;9.16;100.00
69751;BME280;57335;52.288;6.056;2023-04-29T01:26:49;101471.38;;;9.20;100.00
69751;BME280;57335;52.288;6.056;2023-04-29T01:29:34;101473.16;;;9.19;100.00
69751;BME280;57335;52.288;6.056;2023-04-29T01:32:09;101467.06;;;9.12;100.00
69751;BME280;57335;52.288;6.056;2023-04-29T01:34:54;101470.72;;;9.18;100.00
69751;BME280;57335;52.288;6.056;2023-04-29T01:38:10;101487.50;;;9.24;100.00
69751;BME280;57335;52.288;6.056;2023-04-29T01:40:52;101481.13;;;9.26;100.00
69751;BME280;57335;52.288;6.056;2023-04-29T01:43:23;101474.97;;;9.19;100.00
69751;BME280;57335;52.288;6.056;2023-04-29T01:45:55;101484.09;;;9.23;100.00
69751;BME280;57335;52.288;6.056;2023-04-29T01:48:23;101491.47;;;9.19;100.00
69751;BME280;57335;52.288;6.056;2023-04-29T01:50:49;101492.56;;;9.25;100.00
69751;BME280;57335;52.288;6.056;2023-04-29T01:53:16;101494.19;;;9.26;100.00
69751;BME280;57335;52.288;6.056;2023-04-29T01:55:42;101498.41;;;9.27;100.00
69751;BME280;57335;52.288;6.056;2023-04-29T01:58:10;101503.19;;;9.24;100.00
69751;BME280;57335;52.288;6.056;2023-04-29T02:00:36;101501.41;;;9.24;100.00
69751;BME280;57335;52.288;6.056;2023-04-29T02:03:03;101501.41;;;9.24;100.00
69751;BME280;57335;52.288;6.056;2023-04-29T02:05:29;101504.38;;;9.21;100.00
69751;BME280;57335;52.288;6.056;2023-04-29T02:07:55;101497.88;;;9.17;100.00
69751;BME280;57335;52.288;6.056;2023-04-29T02:10:22;101509.59;;;9.21;100.00
69751;BME280;57335;52.288;6.056;2023-04-29T02:12:48;101518.47;;;9.20;100.00
69751;BME280;57335;52.288;6.056;2023-04-29T02:15:14;101509.41;;;9.08;100.00
69751;BME280;57335;52.288;6.056;2023-04-29T02:17:41;101521.59;;;9.15;100.00
69751;BME280;57335;52.288;6.056;2023-04-29T02:20:07;101521.13;;;9.12;100.00
69751;BME280;57335;52.288;6.056;2023-04-29T02:22:34;101518.25;;;9.07;100.00
69751;BME280;57335;52.288;6.056;2023-04-29T02:25:00;101531.59;;;9.12;100.00
69751;BME280;57335;52.288;6.056;2023-04-29T02:27:27;101540.97;;;9.06;100.00
69751;BME280;57335;52.288;6.056;2023-04-29T02:29:53;101533.41;;;8.96;100.00
69751;BME280;57335;52.288;6.056;2023-04-29T02:32:19;101543.94;;;9.03;100.00
69751;BME280;57335;52.288;6.056;2023-04-29T02:34:46;101542.34;;;9.02;100.00
69751;BME280;57335;52.288;6.056;2023-04-29T02:37:12;101553.13;;;8.99;100.00
69751;BME280;57335;52.288;6.056;2023-04-29T02:39:38;101554.38;;;8.88;100.00
69751;BME280;57335;52.288;6.056;2023-04-29T02:42:05;101550.66;;;8.83;100.00
69751;BME280;57335;52.288;6.056;2023-04-29T02:44:31;101558.97;;;8.86;100.00
69751;BME280;57335;52.288;6.056;2023-04-29T02:46:57;101560.75;;;8.86;100.00
69751;BME280;57335;52.288;6.056;2023-04-29T02:49:24;101564.00;;;8.88;100.00
69751;BME280;57335;52.288;6.056;2023-04-29T02:51:50;101575.28;;;8.88;100.00
69751;BME280;57335;52.288;6.056;2023-04-29T02:54:16;101563.91;;;8.81;100.00
69751;BME280;57335;52.288;6.056;2023-04-29T02:56:43;101568.50;;;8.79;100.00
69751;BME280;57335;52.288;6.056;2023-04-29T02:59:09;101572.84;;;8.87;100.00
69751;BME280;57335;52.288;6.056;2023-04-29T03:01:35;101581.50;;;8.87;100.00
69751;BME280;57335;52.288;6.056;2023-04-29T03:04:02;101579.53;;;8.89;100.00
69751;BME280;57335;52.288;6.056;2023-04-29T03:06:29;101585.28;;;8.85;100.00
69751;BME280;57335;52.288;6.056;2023-04-29T03:08:55;101580.69;;;8.87;100.00
69751;BME280;57335;52.288;6.056;2023-04-29T03:11:21;101586.72;;;8.87;100.00
69751;BME280;57335;52.288;6.056;2023-04-29T03:13:48;101590.84;;;8.82;100.00
69751;BME280;57335;52.288;6.056;2023-04-29T03:16:14;101584.00;;;8.81;100.00
69751;BME280;57335;52.288;6.056;2023-04-29T03:18:42;101611.06;;;8.88;100.00
69751;BME280;57335;52.288;6.056;2023-04-29T03:21:08;101605.03;;;8.87;100.00
69751;BME280;57335;52.288;6.056;2023-04-29T03:23:35;101608.06;;;8.76;100.00
69751;BME280;57335;52.288;6.056;2023-04-29T03:26:01;101610.84;;;8.74;100.00
69751;BME280;57335;52.288;6.056;2023-04-29T03:28:27;101606.97;;;8.70;100.00
69751;BME280;57335;52.288;6.056;2023-04-29T03:30:54;101610.91;;;8.66;100.00
69751;BME280;57335;52.288;6.056;2023-04-29T03:33:20;101609.75;;;8.69;100.00
69751;BME280;57335;52.288;6.056;2023-04-29T03:35:46;101611.81;;;8.73;100.00
69751;BME280;57335;52.288;6.056;2023-04-29T03:38:13;101614.75;;;8.78;100.00
69751;BME280;57335;52.288;6.056;2023-04-29T03:40:39;101619.25;;;8.85;100.00
69751;BME280;57335;52.288;6.056;2023-04-29T03:43:06;101612.88;;;8.87;100.00
69751;BME280;57335;52.288;6.056;2023-04-29T03:45:32;101608.91;;;8.91;100.00
69751;BME280;57335;52.288;6.056;2023-04-29T03:47:58;101609.72;;;8.92;100.00
69751;BME280;57335;52.288;6.056;2023-04-29T03:50:25;101614.66;;;8.87;100.00
69751;BME280;57335;52.288;6.056;2023-04-29T03:52:51;101617.38;;;8.93;100.00
69751;BME280;57335;52.288;6.056;2023-04-29T03:55:18;101609.59;;;8.85;100.00
69751;BME280;57335;52.288;6.056;2023-04-29T03:57:44;101613.94;;;8.78;100.00
69751;BME280;57335;52.288;6.056;2023-04-29T04:00:11;101616.25;;;8.73;100.00
69751;BME280;57335;52.288;6.056;2023-04-29T04:02:37;101638.09;;;8.80;100.00
69751;BME280;57335;52.288;6.056;2023-04-29T04:05:04;101634.47;;;8.81;100.00
69751;BME280;57335;52.288;6.056;2023-04-29T04:07:30;101633.66;;;8.81;100.00
69751;BME280;57335;52.288;6.056;2023-04-29T04:09:57;101639.44;;;8.76;100.00
69751;BME280;57335;52.288;6.056;2023-04-29T04:12:23;101631.44;;;8.69;100.00
69751;BME280;57335;52.288;6.056;2023-04-29T04:14:50;101631.75;;;8.74;100.00
69751;BME280;57335;52.288;6.056;2023-04-29T04:17:16;101641.69;;;8.79;100.00
69751;BME280;57335;52.288;6.056;2023-04-29T04:19:42;101633.53;;;8.74;100.00
69751;BME280;57335;52.288;6.056;2023-04-29T04:22:08;101638.13;;;8.72;100.00
69751;BME280;57335;52.288;6.056;2023-04-29T04:24:38;101653.94;;;8.78;100.00
69751;BME280;57335;52.288;6.056;2023-04-29T04:27:04;101646.66;;;8.66;100.00
69751;BME280;57335;52.288;6.056;2023-04-29T04:29:30;101652.53;;;8.68;100.00
69751;BME280;57335;52.288;6.056;2023-04-29T04:31:57;101653.84;;;8.64;100.00
69751;BME280;57335;52.288;6.056;2023-04-29T04:34:23;101658.28;;;8.63;100.00
69751;BME280;57335;52.288;6.056;2023-04-29T04:36:49;101668.19;;;8.68;100.00
69751;BME280;57335;52.288;6.056;2023-04-29T04:39:16;101657.47;;;8.63;100.00
69751;BME280;57335;52.288;6.056;2023-04-29T04:41:42;101670.16;;;8.66;100.00
69751;BME280;57335;52.288;6.056;2023-04-29T04:44:09;101677.69;;;8.69;100.00
69751;BME280;57335;52.288;6.056;2023-04-29T04:46:35;101661.69;;;8.64;100.00
69751;BME280;57335;52.288;6.056;2023-04-29T04:49:01;101682.91;;;8.69;100.00
69751;BME280;57335;52.288;6.056;2023-04-29T04:51:28;101687.97;;;8.70;100.00
69751;BME280;57335;52.288;6.056;2023-04-29T04:53:54;101682.59;;;8.64;100.00
69751;BME280;57335;52.288;6.056;2023-04-29T04:56:20;101697.31;;;8.65;100.00
69751;BME280;57335;52.288;6.056;2023-04-29T04:58:47;101695.66;;;8.64;100.00
69751;BME280;57335;52.288;6.056;2023-04-29T05:04:18;101706.25;;;8.70;100.00
69751;BME280;57335;52.288;6.056;2023-04-29T05:06:45;101709.31;;;8.74;100.00
69751;BME280;57335;52.288;6.056;2023-04-29T05:09:11;101699.88;;;8.73;100.00
69751;BME280;57335;52.288;6.056;2023-04-29T05:11:37;101707.38;;;8.76;100.00
69751;BME280;57335;52.288;6.056;2023-04-29T05:14:04;101719.78;;;8.74;100.00
69751;BME280;57335;52.288;6.056;2023-04-29T05:16:30;101710.31;;;8.73;100.00
69751;BME280;57335;52.288;6.056;2023-04-29T05:18:56;101718.16;;;8.73;100.00
69751;BME280;57335;52.288;6.056;2023-04-29T05:21:23;101721.63;;;8.65;100.00
69751;BME280;57335;52.288;6.056;2023-04-29T05:23:49;101723.59;;;8.63;100.00
69751;BME280;57335;52.288;6.056;2023-04-29T05:26:15;101723.97;;;8.60;100.00
69751;BME280;57335;52.288;6.056;2023-04-29T05:28:42;101712.22;;;8.56;100.00
69751;BME280;57335;52.288;6.056;2023-04-29T05:31:08;101724.88;;;8.67;100.00
69751;BME280;57335;52.288;6.056;2023-04-29T05:33:35;101722.91;;;8.69;100.00
69751;BME280;57335;52.288;6.056;2023-04-29T05:36:01;101741.81;;;8.79;100.00
69751;BME280;57335;52.288;6.056;2023-04-29T05:38:27;101741.34;;;8.76;100.00
69751;BME280;57335;52.288;6.056;2023-04-29T05:40:55;101745.59;;;8.77;100.00
69751;BME280;57335;52.288;6.056;2023-04-29T05:43:21;101743.59;;;8.79;100.00
69751;BME280;57335;52.288;6.056;2023-04-29T05:45:48;101742.63;;;8.80;100.00
69751;BME280;57335;52.288;6.056;2023-04-29T05:48:14;101746.19;;;8.87;100.00
69751;BME280;57335;52.288;6.056;2023-04-29T05:50:41;101743.28;;;8.82;100.00
69751;BME280;57335;52.288;6.056;2023-04-29T05:53:07;101754.13;;;8.94;100.00
69751;BME280;57335;52.288;6.056;2023-04-29T05:55:34;101755.66;;;8.88;100.00
69751;BME280;57335;52.288;6.056;2023-04-29T05:58:00;101772.44;;;8.94;100.00
69751;BME280;57335;52.288;6.056;2023-04-29T06:00:26;101765.91;;;8.98;100.00
69751;BME280;57335;52.288;6.056;2023-04-29T06:02:53;101775.38;;;8.99;100.00
69751;BME280;57335;52.288;6.056;2023-04-29T06:05:25;101782.34;;;9.07;100.00
69751;BME280;57335;52.288;6.056;2023-04-29T06:07:52;101783.00;;;9.09;100.00
69751;BME280;57335;52.288;6.056;2023-04-29T06:10:18;101794.72;;;9.13;100.00
69751;BME280;57335;52.288;6.056;2023-04-29T06:12:44;101787.16;;;9.18;100.00
69751;BME280;57335;52.288;6.056;2023-04-29T06:15:11;101776.06;;;9.16;100.00
69751;BME280;57335;52.288;6.056;2023-04-29T06:17:37;101792.69;;;9.23;100.00
69751;BME280;57335;52.288;6.056;2023-04-29T06:20:04;101782.78;;;9.18;100.00
69751;BME280;57335;52.288;6.056;2023-04-29T06:22:30;101781.59;;;9.21;100.00
69751;BME280;57335;52.288;6.056;2023-04-29T06:24:57;101795.09;;;9.33;100.00
69751;BME280;57335;52.288;6.056;2023-04-29T06:27:23;101797.53;;;9.34;100.00
69751;BME280;57335;52.288;6.056;2023-04-29T06:29:50;101797.81;;;9.39;100.00
69751;BME280;57335;52.288;6.056;2023-04-29T06:32:16;101803.00;;;9.48;100.00
69751;BME280;57335;52.288;6.056;2023-04-29T06:34:43;101800.75;;;9.45;100.00
69751;BME280;57335;52.288;6.056;2023-04-29T06:37:09;101804.91;;;9.54;100.00
69751;BME280;57335;52.288;6.056;2023-04-29T06:39:36;101817.41;;;9.67;100.00
69751;BME280;57335;52.288;6.056;2023-04-29T06:42:02;101805.84;;;9.61;100.00
69751;BME280;57335;52.288;6.056;2023-04-29T06:44:28;101814.44;;;9.70;100.00
69751;BME280;57335;52.288;6.056;2023-04-29T06:46:55;101816.81;;;9.79;100.00
69751;BME280;57335;52.288;6.056;2023-04-29T06:49:21;101822.19;;;9.86;100.00
69751;BME280;57335;52.288;6.056;2023-04-29T06:51:48;101827.84;;;9.90;100.00
69751;BME280;57335;52.288;6.056;2023-04-29T06:54:14;101814.59;;;9.91;100.00
69751;BME280;57335;52.288;6.056;2023-04-29T06:56:40;101824.91;;;9.93;100.00
69751;BME280;57335;52.288;6.056;2023-04-29T06:59:07;101836.91;;;10.02;100.00
69751;BME280;57335;52.288;6.056;2023-04-29T07:01:33;101847.13;;;10.12;100.00
69751;BME280;57335;52.288;6.056;2023-04-29T07:04:00;101847.91;;;10.21;100.00
69751;BME280;57335;52.288;6.056;2023-04-29T07:06:26;101832.91;;;10.14;100.00
69751;BME280;57335;52.288;6.056;2023-04-29T07:08:53;101838.09;;;10.37;100.00
69751;BME280;57335;52.288;6.056;2023-04-29T07:11:22;101853.09;;;10.44;100.00
69751;BME280;57335;52.288;6.056;2023-04-29T07:13:49;101839.97;;;10.44;99.34
69751;BME280;57335;52.288;6.056;2023-04-29T07:16:16;101850.09;;;10.62;100.00
69751;BME280;57335;52.288;6.056;2023-04-29T07:18:43;101859.88;;;10.68;99.17
69751;BME280;57335;52.288;6.056;2023-04-29T07:21:09;101874.59;;;10.84;100.00
69751;BME280;57335;52.288;6.056;2023-04-29T07:23:36;101870.38;;;10.83;94.96
69751;BME280;57335;52.288;6.056;2023-04-29T07:26:12;101872.69;;;10.92;97.23
69751;BME280;57335;52.288;6.056;2023-04-29T07:28:39;101885.16;;;11.05;95.83
69751;BME280;57335;52.288;6.056;2023-04-29T07:31:05;101882.50;;;11.20;97.10
69751;BME280;57335;52.288;6.056;2023-04-29T07:33:32;101888.81;;;11.41;93.86
69751;BME280;57335;52.288;6.056;2023-04-29T07:35:58;101899.72;;;11.59;94.29
69751;BME280;57335;52.288;6.056;2023-04-29T07:38:25;101889.19;;;11.59;93.42
69751;BME280;57335;52.288;6.056;2023-04-29T07:40:51;101891.09;;;11.65;91.95
69751;BME280;57335;52.288;6.056;2023-04-29T07:43:18;101909.16;;;11.96;90.03
69751;BME280;57335;52.288;6.056;2023-04-29T07:45:44;101895.47;;;12.01;89.35
69751;BME280;57335;52.288;6.056;2023-04-29T07:48:10;101901.97;;;12.05;88.09
69751;BME280;57335;52.288;6.056;2023-04-29T07:50:37;101894.09;;;12.05;88.42
69751;BME280;57335;52.288;6.056;2023-04-29T07:53:03;101903.22;;;12.09;87.73
69751;BME280;57335;52.288;6.056;2023-04-29T07:55:30;101909.94;;;12.18;87.28
69751;BME280;57335;52.288;6.056;2023-04-29T07:57:57;101920.00;;;12.36;88.43
69751;BME280;57335;52.288;6.056;2023-04-29T08:00:25;101907.31;;;12.47;87.85
69751;BME280;57335;52.288;6.056;2023-04-29T08:02:53;101912.19;;;12.43;85.05
69751;BME280;57335;52.288;6.056;2023-04-29T08:05:20;101919.91;;;12.51;84.49
69751;BME280;57335;52.288;6.056;2023-04-29T08:07:48;101923.72;;;12.77;83.19
69751;BME280;57335;52.288;6.056;2023-04-29T08:10:16;101920.69;;;12.80;83.08
69751;BME280;57335;52.288;6.056;2023-04-29T08:12:45;101929.81;;;12.84;83.79
69751;BME280;57335;52.288;6.056;2023-04-29T08:15:12;101933.31;;;12.91;84.17
69751;BME280;57335;52.288;6.056;2023-04-29T08:17:39;101934.72;;;12.87;80.79
69751;BME280;57335;52.288;6.056;2023-04-29T08:20:06;101927.59;;;12.81;79.96
69751;BME280;57335;52.288;6.056;2023-04-29T08:22:32;101941.84;;;13.00;80.85
69751;BME280;57335;52.288;6.056;2023-04-29T08:24:59;101935.94;;;13.33;79.85
69751;BME280;57335;52.288;6.056;2023-04-29T08:27:25;101940.94;;;13.69;78.43
69751;BME280;57335;52.288;6.056;2023-04-29T08:29:51;101944.00;;;14.00;75.37
69751;BME280;57335;52.288;6.056;2023-04-29T08:32:18;101937.72;;;14.54;76.28
69751;BME280;57335;52.288;6.056;2023-04-29T08:34:44;101943.34;;;14.98;73.34
69751;BME280;57335;52.288;6.056;2023-04-29T08:37:10;101952.53;;;15.33;72.15
69751;BME280;57335;52.288;6.056;2023-04-29T08:39:37;101952.34;;;15.67;70.94
69751;BME280;57335;52.288;6.056;2023-04-29T08:42:07;101959.78;;;16.15;67.66
69751;BME280;57335;52.288;6.056;2023-04-29T08:44:34;101964.63;;;16.43;65.02
69751;BME280;57335;52.288;6.056;2023-04-29T08:47:01;101970.69;;;16.50;68.88
69751;BME280;57335;52.288;6.056;2023-04-29T08:49:28;101969.72;;;16.45;66.41
69751;BME280;57335;52.288;6.056;2023-04-29T08:51:55;101973.75;;;16.47;65.85
69751;BME280;57335;52.288;6.056;2023-04-29T08:54:21;101968.41;;;16.54;68.03
69751;BME280;57335;52.288;6.056;2023-04-29T08:56:47;101974.00;;;16.46;65.66
69751;BME280;57335;52.288;6.056;2023-04-29T08:59:16;101957.69;;;16.24;67.07
69751;BME280;57335;52.288;6.056;2023-04-29T09:01:43;101968.75;;;16.14;65.07
69751;BME280;57335;52.288;6.056;2023-04-29T09:04:30;101960.94;;;16.26;65.02
69751;BME280;57335;52.288;6.056;2023-04-29T09:07:03;101976.13;;;16.05;63.56
69751;BME280;57335;52.288;6.056;2023-04-29T09:09:31;101976.09;;;16.12;64.18
69751;BME280;57335;52.288;6.056;2023-04-29T09:11:58;101973.59;;;16.42;66.48
69751;BME280;57335;52.288;6.056;2023-04-29T09:14:24;101984.09;;;16.74;61.97
69751;BME280;57335;52.288;6.056;2023-04-29T09:16:50;101977.56;;;16.51;64.70
69751;BME280;57335;52.288;6.056;2023-04-29T09:19:31;101987.97;;;16.28;63.21
69751;BME280;57335;52.288;6.056;2023-04-29T09:21:59;101983.31;;;16.48;64.50
69751;BME280;57335;52.288;6.056;2023-04-29T09:27:05;101989.59;;;16.54;62.62
69751;BME280;57335;52.288;6.056;2023-04-29T09:29:31;101993.97;;;16.42;64.34
69751;BME280;57335;52.288;6.056;2023-04-29T09:31:57;101991.84;;;16.25;64.76
69751;BME280;57335;52.288;6.056;2023-04-29T09:34:32;101999.31;;;16.03;66.39
69751;BME280;57335;52.288;6.056;2023-04-29T09:39:38;101993.81;;;15.66;64.45
69751;BME280;57335;52.288;6.056;2023-04-29T09:42:04;102004.94;;;15.36;65.25
69751;BME280;57335;52.288;6.056;2023-04-29T09:44:33;102005.09;;;15.48;69.53
69751;BME280;57335;52.288;6.056;2023-04-29T09:47:05;102003.78;;;15.12;68.66
69751;BME280;57335;52.288;6.056;2023-04-29T09:49:34;102002.25;;;14.78;68.26
69751;BME280;57335;52.288;6.056;2023-04-29T09:52:02;102001.84;;;14.68;71.72
69751;BME280;57335;52.288;6.056;2023-04-29T09:54:30;102005.25;;;14.55;70.67
69751;BME280;57335;52.288;6.056;2023-04-29T09:56:59;102008.94;;;14.47;70.94
69751;BME280;57335;52.288;6.056;2023-04-29T09:59:25;102012.97;;;14.36;69.14
69751;BME280;57335;52.288;6.056;2023-04-29T10:01:54;102014.81;;;14.36;71.08
69751;BME280;57335;52.288;6.056;2023-04-29T10:04:25;102015.22;;;14.46;74.11
69751;BME280;57335;52.288;6.056;2023-04-29T10:06:53;102009.72;;;14.34;70.41
69751;BME280;57335;52.288;6.056;2023-04-29T10:09:21;102012.75;;;14.18;70.47
69751;BME280;57335;52.288;6.056;2023-04-29T10:11:50;102022.91;;;14.14;72.54
69751;BME280;57335;52.288;6.056;2023-04-29T10:16:46;102010.75;;;14.40;77.51
69751;BME280;57335;52.288;6.056;2023-04-29T10:19:45;102022.91;;;15.08;74.15
69751;BME280;57335;52.288;6.056;2023-04-29T10:22:21;102013.38;;;15.59;67.48
69751;BME280;57335;52.288;6.056;2023-04-29T10:24:52;102010.50;;;15.67;66.31
69751;BME280;57335;52.288;6.056;2023-04-29T10:27:23;102016.91;;;15.46;66.37
69751;BME280;57335;52.288;6.056;2023-04-29T10:29:52;102009.00;;;15.32;65.84
69751;BME280;57335;52.288;6.056;2023-04-29T10:32:20;102005.59;;;15.19;69.33
69751;BME280;57335;52.288;6.056;2023-04-29T10:34:47;102006.63;;;15.18;67.15
69751;BME280;57335;52.288;6.056;2023-04-29T10:37:14;102013.94;;;15.22;66.51
69751;BME280;57335;52.288;6.056;2023-04-29T10:39:42;102017.22;;;15.04;71.64
69751;BME280;57335;52.288;6.056;2023-04-29T10:42:24;102004.47;;;14.61;69.08
69751;BME280;57335;52.288;6.056;2023-04-29T10:45:25;102019.69;;;14.59;69.36
69751;BME280;57335;52.288;6.056;2023-04-29T10:53:18;102003.09;;;15.44;72.37
69751;BME280;57335;52.288;6.056;2023-04-29T10:55:53;102019.84;;;15.76;69.92
69751;BME280;57335;52.288;6.056;2023-04-29T10:58:37;102011.25;;;15.81;65.74
69751;BME280;57335;52.288;6.056;2023-04-29T11:01:04;102032.69;;;15.59;62.98
69751;BME280;57335;52.288;6.056;2023-04-29T11:06:16;102014.56;;;15.76;68.82
69751;BME280;57335;52.288;6.056;2023-04-29T11:08:43;102014.00;;;15.99;65.88
69751;BME280;57335;52.288;6.056;2023-04-29T11:11:09;102024.22;;;15.89;65.25
69751;BME280;57335;52.288;6.056;2023-04-29T11:13:39;102013.56;;;15.57;66.19
69751;BME280;57335;52.288;6.056;2023-04-29T11:16:07;102032.56;;;15.41;68.66
69751;BME280;57335;52.288;6.056;2023-04-29T11:18:35;102005.25;;;15.60;66.42
69751;BME280;57335;52.288;6.056;2023-04-29T11:23:35;102025.53;;;15.66;64.56
69751;BME280;57335;52.288;6.056;2023-04-29T11:26:02;102025.88;;;15.31;66.26
69751;BME280;57335;52.288;6.056;2023-04-29T11:28:30;102013.53;;;15.05;66.29
69751;BME280;57335;52.288;6.056;2023-04-29T11:30:58;102015.72;;;15.28;68.99
69751;BME280;57335;52.288;6.056;2023-04-29T11:33:26;102017.25;;;15.56;67.49
69751;BME280;57335;52.288;6.056;2023-04-29T11:35:53;102009.16;;;15.89;66.90
69751;BME280;57335;52.288;6.056;2023-04-29T11:38:29;102008.88;;;16.04;62.39
69751;BME280;57335;52.288;6.056;2023-04-29T11:40:56;102020.34;;;16.23;61.58
69751;BME280;57335;52.288;6.056;2023-04-29T11:43:23;102023.09;;;16.35;63.19
69751;BME280;57335;52.288;6.056;2023-04-29T11:45:51;102005.91;;;15.94;62.97
69751;BME280;57335;52.288;6.056;2023-04-29T11:50:49;102016.81;;;15.72;69.14
69751;BME280;57335;52.288;6.056;2023-04-29T11:53:19;102016.28;;;15.89;65.07
69751;BME280;57335;52.288;6.056;2023-04-29T11:55:46;102028.59;;;16.08;61.97
69751;BME280;57335;52.288;6.056;2023-04-29T11:58:15;102027.53;;;16.41;61.69
69751;BME280;57335;52.288;6.056;2023-04-29T12:00:42;102015.97;;;16.61;64.90
69751;BME280;57335;52.288;6.056;2023-04-29T12:03:19;102022.34;;;16.78;61.26
69751;BME280;57335;52.288;6.056;2023-04-29T12:05:47;102023.38;;;16.77;60.15
69751;BME280;57335;52.288;6.056;2023-04-29T12:08:13;102033.31;;;16.31;62.33
69751;BME280;57335;52.288;6.056;2023-04-29T12:10:40;102018.38;;;15.80;62.25
69751;BME280;57335;52.288;6.056;2023-04-29T12:13:07;102026.13;;;15.68;66.94
69751;BME280;57335;52.288;6.056;2023-04-29T12:15:38;102031.56;;;15.87;68.84
69751;BME280;57335;52.288;6.056;2023-04-29T12:18:07;102027.91;;;16.20;61.23
69751;BME280;57335;52.288;6.056;2023-04-29T12:20:33;102039.69;;;16.49;60.05
69751;BME280;57335;52.288;6.056;2023-04-29T12:23:13;102029.44;;;16.84;60.08
69751;BME280;57335;52.288;6.056;2023-04-29T12:25:40;102015.50;;;17.14;59.23
69751;BME280;57335;52.288;6.056;2023-04-29T12:28:14;102015.47;;;17.51;58.33
69751;BME280;57335;52.288;6.056;2023-04-29T12:30:43;102027.06;;;17.50;58.41
69751;BME280;57335;52.288;6.056;2023-04-29T12:33:10;102026.78;;;17.40;57.76
69751;BME280;57335;52.288;6.056;2023-04-29T12:35:40;102029.00;;;17.06;55.99
69751;BME280;57335;52.288;6.056;2023-04-29T12:38:07;102018.34;;;16.94;61.98
69751;BME280;57335;52.288;6.056;2023-04-29T12:40:33;102021.63;;;16.89;60.58
69751;BME280;57335;52.288;6.056;2023-04-29T12:43:06;102026.88;;;16.71;52.86
69751;BME280;57335;52.288;6.056;2023-04-29T12:45:33;102030.72;;;16.75;56.94
69751;BME280;57335;52.288;6.056;2023-04-29T12:48:00;102020.03;;;16.88;61.56
69751;BME280;57335;52.288;6.056;2023-04-29T12:50:35;102027.91;;;17.13;58.09
69751;BME280;57335;52.288;6.056;2023-04-29T12:53:07;102019.81;;;17.27;60.41
69751;BME280;57335;52.288;6.056;2023-04-29T12:55:37;102018.78;;;17.28;58.77
69751;BME280;57335;52.288;6.056;2023-04-29T12:58:04;102025.03;;;17.52;55.88
69751;BME280;57335;52.288;6.056;2023-04-29T13:00:30;102035.66;;;17.82;57.73
69751;BME280;57335;52.288;6.056;2023-04-29T13:02:57;102026.06;;;17.81;55.49
69751;BME280;57335;52.288;6.056;2023-04-29T13:05:23;102022.91;;;17.42;59.53
69751;BME280;57335;52.288;6.056;2023-04-29T13:22:05;102025.63;;;17.17;57.58
69751;BME280;57335;52.288;6.056;2023-04-29T13:24:31;102027.63;;;17.22;59.79
69751;BME280;57335;52.288;6.056;2023-04-29T13:26:57;102026.66;;;17.34;52.97
69751;BME280;57335;52.288;6.056;2023-04-29T13:29:25;102021.03;;;17.61;54.39
69751;BME280;57335;52.288;6.056;2023-04-29T13:31:52;102030.31;;;17.70;54.73
69751;BME280;57335;52.288;6.056;2023-04-29T13:34:18;102027.13;;;17.62;54.53
69751;BME280;57335;52.288;6.056;2023-04-29T13:36:44;102032.19;;;17.33;52.90
69751;BME280;57335;52.288;6.056;2023-04-29T13:39:11;102017.91;;;16.97;55.43